sensor_id;sensor_type;location;lat;lon;timestamp;temperature;humidity
11142;DHT22;5625;50.122;19.864;2022-10-03T00:02:15;11.00;99.90
11142;DHT22;5625;50.122;19.864;2022-10-03T00:05:14;11.10;99.90
11142;DHT22;5625;50.122;19.864;2022-10-03T00:08:03;11.10;99.90
11142;DHT22;5625;50.122;19.864;2022-10-03T00:10:44;11.00;99.90
11142;DHT22;5625;50.122;19.864;2022-10-03T00:13:20;11.10;99.90
11142;DHT22;5625;50.122;19.864;2022-10-03T00:16:05;11.00;99.90
11142;DHT22;5625;50.122;19.864;2022-10-03T00:18:44;11.00;99.90
11142;DHT22;5625;50.122;19.864;2022-10-03T00:21:21;11.00;99.90
11142;DHT22;5625;50.122;19.864;2022-10-03T00:24:00;11.10;99.90
11142;DHT22;5625;50.122;19.864;2022-10-03T00:26:39;11.00;99.90
11142;DHT22;5625;50.122;19.864;2022-10-03T00:29:33;11.00;99.90
11142;DHT22;5625;50.122;19.864;2022-10-03T00:32:18;11.00;99.90
11142;DHT22;5625;50.122;19.864;2022-10-03T00:35:01;11.00;99.90
11142;DHT22;5625;50.122;19.864;2022-10-03T00:37:35;11.00;99.90
11142;DHT22;5625;50.122;19.864;2022-10-03T00:40:34;11.00;99.90
11142;DHT22;5625;50.122;19.864;2022-10-03T00:43:25;11.00;99.90
11142;DHT22;5625;50.122;19.864;2022-10-03T00:49:48;10.90;99.90
11142;DHT22;5625;50.122;19.864;2022-10-03T00:52:41;10.90;99.90
11142;DHT22;5625;50.122;19.864;2022-10-03T00:55:17;10.90;99.90
11142;DHT22;5625;50.122;19.864;2022-10-03T00:57:58;10.90;99.90
11142;DHT22;5625;50.122;19.864;2022-10-03T01:00:29;10.90;99.90
11142;DHT22;5625;50.122;19.864;2022-10-03T01:03:12;10.90;99.90
11142;DHT22;5625;50.122;19.864;2022-10-03T01:06:00;10.90;99.90
11142;DHT22;5625;50.122;19.864;2022-10-03T01:11:40;10.90;99.90
11142;DHT22;5625;50.122;19.864;2022-10-03T01:14:22;10.80;99.90
11142;DHT22;5625;50.122;19.864;2022-10-03T01:17:01;10.80;99.90
11142;DHT22;5625;50.122;19.864;2022-10-03T01:19:53;10.80;99.90
11142;DHT22;5625;50.122;19.864;2022-10-03T01:25:38;10.70;99.90
11142;DHT22;5625;50.122;19.864;2022-10-03T01:28:23;10.70;99.90
11142;DHT22;5625;50.122;19.864;2022-10-03T01:31:18;10.70;99.90
11142;DHT22;5625;50.122;19.864;2022-10-03T01:33:53;10.70;99.90
11142;DHT22;5625;50.122;19.864;2022-10-03T01:36:30;10.70;99.90
11142;DHT22;5625;50.122;19.864;2022-10-03T01:39:04;10.70;99.90
11142;DHT22;5625;50.122;19.864;2022-10-03T01:41:43;10.70;99.90
11142;DHT22;5625;50.122;19.864;2022-10-03T01:44:19;10.70;99.90
11142;DHT22;5625;50.122;19.864;2022-10-03T01:46:54;10.70;99.90
11142;DHT22;5625;50.122;19.864;2022-10-03T01:49:29;10.70;99.90
11142;DHT22;5625;50.122;19.864;2022-10-03T01:52:05;10.70;99.90
11142;DHT22;5625;50.122;19.864;2022-10-03T01:54:40;10.70;99.90
11142;DHT22;5625;50.122;19.864;2022-10-03T01:57:16;10.70;99.90
11142;DHT22;5625;50.122;19.864;2022-10-03T01:59:54;10.70;99.90
11142;DHT22;5625;50.122;19.864;2022-10-03T02:02:30;10.70;99.90
11142;DHT22;5625;50.122;19.864;2022-10-03T02:05:05;10.70;99.90
11142;DHT22;5625;50.122;19.864;2022-10-03T02:07:41;10.70;99.90
11142;DHT22;5625;50.122;19.864;2022-10-03T02:10:21;10.70;99.90
11142;DHT22;5625;50.122;19.864;2022-10-03T02:12:59;10.80;99.90
11142;DHT22;5625;50.122;19.864;2022-10-03T02:15:42;10.70;99.90
11142;DHT22;5625;50.122;19.864;2022-10-03T02:18:15;10.80;99.90
11142;DHT22;5625;50.122;19.864;2022-10-03T02:20:48;10.70;99.90
11142;DHT22;5625;50.122;19.864;2022-10-03T02:23:36;10.70;99.90
11142;DHT22;5625;50.122;19.864;2022-10-03T02:26:20;10.80;99.90
11142;DHT22;5625;50.122;19.864;2022-10-03T02:29:11;10.80;99.90
11142;DHT22;5625;50.122;19.864;2022-10-03T02:32:11;10.80;99.90
11142;DHT22;5625;50.122;19.864;2022-10-03T02:35:05;10.70;99.90
11142;DHT22;5625;50.122;19.864;2022-10-03T02:37:51;10.70;99.90
11142;DHT22;5625;50.122;19.864;2022-10-03T02:40:50;10.70;99.90
11142;DHT22;5625;50.122;19.864;2022-10-03T02:43:46;10.70;99.90
11142;DHT22;5625;50.122;19.864;2022-10-03T02:49:50;10.60;99.90
11142;DHT22;5625;50.122;19.864;2022-10-03T02:52:55;10.70;99.90
11142;DHT22;5625;50.122;19.864;2022-10-03T02:59:10;10.70;99.90
11142;DHT22;5625;50.122;19.864;2022-10-03T03:01:57;10.70;99.90
11142;DHT22;5625;50.122;19.864;2022-10-03T03:04:56;10.70;99.90
11142;DHT22;5625;50.122;19.864;2022-10-03T03:11:04;10.70;99.90
11142;DHT22;5625;50.122;19.864;2022-10-03T03:14:00;10.70;99.90
11142;DHT22;5625;50.122;19.864;2022-10-03T03:17:14;10.70;99.90
11142;DHT22;5625;50.122;19.864;2022-10-03T03:20:04;10.70;99.90
11142;DHT22;5625;50.122;19.864;2022-10-03T03:22:54;10.70;99.90
11142;DHT22;5625;50.122;19.864;2022-10-03T03:25:44;10.80;99.90
11142;DHT22;5625;50.122;19.864;2022-10-03T03:28:24;10.70;99.90
11142;DHT22;5625;50.122;19.864;2022-10-03T03:31:02;10.80;99.90
11142;DHT22;5625;50.122;19.864;2022-10-03T03:33:41;10.70;99.90
11142;DHT22;5625;50.122;19.864;2022-10-03T03:36:21;10.70;99.90
11142;DHT22;5625;50.122;19.864;2022-10-03T03:38:59;10.70;99.90
11142;DHT22;5625;50.122;19.864;2022-10-03T03:41:40;10.70;99.90
11142;DHT22;5625;50.122;19.864;2022-10-03T03:47:26;10.70;99.90
11142;DHT22;5625;50.122;19.864;2022-10-03T03:50:12;10.70;99.90
11142;DHT22;5625;50.122;19.864;2022-10-03T03:52:56;10.70;99.90
11142;DHT22;5625;50.122;19.864;2022-10-03T03:55:44;10.80;99.90
11142;DHT22;5625;50.122;19.864;2022-10-03T03:58:32;10.70;99.90
11142;DHT22;5625;50.122;19.864;2022-10-03T04:01:35;10.80;99.90
11142;DHT22;5625;50.122;19.864;2022-10-03T04:04:15;10.80;99.90
11142;DHT22;5625;50.122;19.864;2022-10-03T04:06:54;10.80;99.90
11142;DHT22;5625;50.122;19.864;2022-10-03T04:09:53;10.80;99.90
11142;DHT22;5625;50.122;19.864;2022-10-03T04:12:42;10.80;99.90
11142;DHT22;5625;50.122;19.864;2022-10-03T04:15:35;10.70;99.90
11142;DHT22;5625;50.122;19.864;2022-10-03T04:18:20;10.80;99.90
11142;DHT22;5625;50.122;19.864;2022-10-03T04:21:44;10.80;99.90
11142;DHT22;5625;50.122;19.864;2022-10-03T04:24:37;10.80;99.90
11142;DHT22;5625;50.122;19.864;2022-10-03T04:27:37;10.80;99.90
11142;DHT22;5625;50.122;19.864;2022-10-03T04:30:11;10.80;99.90
11142;DHT22;5625;50.122;19.864;2022-10-03T04:33:02;10.80;99.90
11142;DHT22;5625;50.122;19.864;2022-10-03T04:35:52;10.70;99.90
11142;DHT22;5625;50.122;19.864;2022-10-03T04:38:38;10.70;99.90
11142;DHT22;5625;50.122;19.864;2022-10-03T04:41:19;10.80;99.90
11142;DHT22;5625;50.122;19.864;2022-10-03T04:43:56;10.80;99.90
11142;DHT22;5625;50.122;19.864;2022-10-03T04:46:30;10.70;99.90
11142;DHT22;5625;50.122;19.864;2022-10-03T04:49:04;10.80;99.90
11142;DHT22;5625;50.122;19.864;2022-10-03T04:51:48;10.80;99.90
11142;DHT22;5625;50.122;19.864;2022-10-03T04:54:28;10.80;99.90
11142;DHT22;5625;50.122;19.864;2022-10-03T04:57:03;10.80;99.90
11142;DHT22;5625;50.122;19.864;2022-10-03T04:59:41;10.70;99.90
11142;DHT22;5625;50.122;19.864;2022-10-03T05:02:29;10.80;99.90
11142;DHT22;5625;50.122;19.864;2022-10-03T05:05:31;10.80;99.90
11142;DHT22;5625;50.122;19.864;2022-10-03T05:08:11;10.80;99.90
11142;DHT22;5625;50.122;19.864;2022-10-03T05:10:53;10.80;99.90
11142;DHT22;5625;50.122;19.864;2022-10-03T05:13:39;10.80;99.90
11142;DHT22;5625;50.122;19.864;2022-10-03T05:16:19;10.80;99.90
11142;DHT22;5625;50.122;19.864;2022-10-03T05:18:54;10.80;99.90
11142;DHT22;5625;50.122;19.864;2022-10-03T05:21:32;10.80;99.90
11142;DHT22;5625;50.122;19.864;2022-10-03T05:24:13;10.80;99.90
11142;DHT22;5625;50.122;19.864;2022-10-03T05:26:51;10.80;99.90
11142;DHT22;5625;50.122;19.864;2022-10-03T05:29:33;10.80;99.90
11142;DHT22;5625;50.122;19.864;2022-10-03T05:32:15;10.80;99.90
11142;DHT22;5625;50.122;19.864;2022-10-03T05:34:59;10.80;99.90
11142;DHT22;5625;50.122;19.864;2022-10-03T05:37:42;10.80;99.90
11142;DHT22;5625;50.122;19.864;2022-10-03T05:40:17;10.80;99.90
11142;DHT22;5625;50.122;19.864;2022-10-03T05:43:00;10.80;99.90
11142;DHT22;5625;50.122;19.864;2022-10-03T05:45:38;10.80;99.90
11142;DHT22;5625;50.122;19.864;2022-10-03T05:48:22;10.80;99.90
11142;DHT22;5625;50.122;19.864;2022-10-03T05:51:20;10.80;99.90
11142;DHT22;5625;50.122;19.864;2022-10-03T05:54:10;10.80;99.90
11142;DHT22;5625;50.122;19.864;2022-10-03T05:57:10;10.80;99.90
11142;DHT22;5625;50.122;19.864;2022-10-03T06:00:04;10.80;99.90
11142;DHT22;5625;50.122;19.864;2022-10-03T06:02:57;10.80;99.90
11142;DHT22;5625;50.122;19.864;2022-10-03T06:05:31;10.80;99.90
11142;DHT22;5625;50.122;19.864;2022-10-03T06:11:19;10.90;99.90
11142;DHT22;5625;50.122;19.864;2022-10-03T06:14:07;10.90;99.90
11142;DHT22;5625;50.122;19.864;2022-10-03T06:16:44;10.90;99.90
11142;DHT22;5625;50.122;19.864;2022-10-03T06:19:27;10.90;99.90
11142;DHT22;5625;50.122;19.864;2022-10-03T06:25:42;10.90;99.90
11142;DHT22;5625;50.122;19.864;2022-10-03T06:28:36;11.00;99.90
11142;DHT22;5625;50.122;19.864;2022-10-03T06:31:41;11.00;99.90
11142;DHT22;5625;50.122;19.864;2022-10-03T06:34:40;11.20;99.90
11142;DHT22;5625;50.122;19.864;2022-10-03T06:37:42;11.30;99.90
11142;DHT22;5625;50.122;19.864;2022-10-03T06:46:23;11.60;99.90
11142;DHT22;5625;50.122;19.864;2022-10-03T06:49:32;11.60;99.90
11142;DHT22;5625;50.122;19.864;2022-10-03T06:58:40;11.50;99.90
11142;DHT22;5625;50.122;19.864;2022-10-03T07:01:56;11.50;99.90
11142;DHT22;5625;50.122;19.864;2022-10-03T07:08:04;11.50;99.90
11142;DHT22;5625;50.122;19.864;2022-10-03T07:10:50;11.50;99.90
11142;DHT22;5625;50.122;19.864;2022-10-03T07:16:44;11.40;99.90
11142;DHT22;5625;50.122;19.864;2022-10-03T07:19:30;11.40;99.90
11142;DHT22;5625;50.122;19.864;2022-10-03T07:22:46;11.40;99.90
11142;DHT22;5625;50.122;19.864;2022-10-03T07:25:51;11.30;99.90
11142;DHT22;5625;50.122;19.864;2022-10-03T07:28:46;11.30;99.90
11142;DHT22;5625;50.122;19.864;2022-10-03T07:31:31;11.30;99.90
11142;DHT22;5625;50.122;19.864;2022-10-03T07:34:25;11.30;99.90
11142;DHT22;5625;50.122;19.864;2022-10-03T07:40:20;11.20;99.90
11142;DHT22;5625;50.122;19.864;2022-10-03T07:43:17;11.20;99.90
11142;DHT22;5625;50.122;19.864;2022-10-03T07:46:31;11.20;99.90
11142;DHT22;5625;50.122;19.864;2022-10-03T07:49:15;11.30;99.90
11142;DHT22;5625;50.122;19.864;2022-10-03T07:52:02;11.30;99.90
11142;DHT22;5625;50.122;19.864;2022-10-03T07:58:10;11.30;99.90
11142;DHT22;5625;50.122;19.864;2022-10-03T08:00:58;11.30;99.90
11142;DHT22;5625;50.122;19.864;2022-10-03T08:07:08;11.30;99.90
11142;DHT22;5625;50.122;19.864;2022-10-03T08:09:55;11.30;99.90
11142;DHT22;5625;50.122;19.864;2022-10-03T08:12:57;11.30;99.90
11142;DHT22;5625;50.122;19.864;2022-10-03T08:15:34;11.30;99.90
11142;DHT22;5625;50.122;19.864;2022-10-03T08:21:15;11.40;99.90
11142;DHT22;5625;50.122;19.864;2022-10-03T08:24:15;11.40;99.90
11142;DHT22;5625;50.122;19.864;2022-10-03T08:27:02;11.40;99.90
11142;DHT22;5625;50.122;19.864;2022-10-03T08:33:11;11.40;99.90
11142;DHT22;5625;50.122;19.864;2022-10-03T08:39:05;11.50;99.90
11142;DHT22;5625;50.122;19.864;2022-10-03T08:42:03;11.50;99.90
11142;DHT22;5625;50.122;19.864;2022-10-03T08:51:46;11.60;99.90
11142;DHT22;5625;50.122;19.864;2022-10-03T08:54:48;11.60;99.90
11142;DHT22;5625;50.122;19.864;2022-10-03T08:57:30;11.80;99.90
11142;DHT22;5625;50.122;19.864;2022-10-03T09:00:15;11.90;99.90
11142;DHT22;5625;50.122;19.864;2022-10-03T09:03:32;12.00;99.90
11142;DHT22;5625;50.122;19.864;2022-10-03T09:06:47;12.00;99.90
11142;DHT22;5625;50.122;19.864;2022-10-03T09:19:00;12.30;99.90
11142;DHT22;5625;50.122;19.864;2022-10-03T09:21:49;12.30;99.90
11142;DHT22;5625;50.122;19.864;2022-10-03T09:31:09;12.10;99.90
11142;DHT22;5625;50.122;19.864;2022-10-03T09:37:13;12.30;99.90
11142;DHT22;5625;50.122;19.864;2022-10-03T09:43:29;12.50;99.90
11142;DHT22;5625;50.122;19.864;2022-10-03T09:46:28;12.50;99.90
11142;DHT22;5625;50.122;19.864;2022-10-03T09:52:28;12.40;99.90
11142;DHT22;5625;50.122;19.864;2022-10-03T09:55:12;12.40;99.90
11142;DHT22;5625;50.122;19.864;2022-10-03T09:58:00;12.30;99.90
11142;DHT22;5625;50.122;19.864;2022-10-03T10:00:45;12.30;99.90
11142;DHT22;5625;50.122;19.864;2022-10-03T10:03:59;12.20;99.90
11142;DHT22;5625;50.122;19.864;2022-10-03T10:06:57;12.20;99.90
11142;DHT22;5625;50.122;19.864;2022-10-03T10:09:51;12.20;99.90
11142;DHT22;5625;50.122;19.864;2022-10-03T10:12:52;12.20;99.90
11142;DHT22;5625;50.122;19.864;2022-10-03T10:15:58;12.10;99.90
11142;DHT22;5625;50.122;19.864;2022-10-03T10:22:06;12.00;99.90
11142;DHT22;5625;50.122;19.864;2022-10-03T10:28:17;12.00;99.90
11142;DHT22;5625;50.122;19.864;2022-10-03T10:59:40;11.90;99.90
11142;DHT22;5625;50.122;19.864;2022-10-03T11:05:43;11.90;99.90
11142;DHT22;5625;50.122;19.864;2022-10-03T11:12:21;12.00;99.90
11142;DHT22;5625;50.122;19.864;2022-10-03T11:18:33;12.00;99.90
11142;DHT22;5625;50.122;19.864;2022-10-03T11:30:59;11.90;99.90
11142;DHT22;5625;50.122;19.864;2022-10-03T11:37:02;11.90;99.90
11142;DHT22;5625;50.122;19.864;2022-10-03T11:39:43;11.90;99.90
11142;DHT22;5625;50.122;19.864;2022-10-03T11:42:21;11.90;99.90
11142;DHT22;5625;50.122;19.864;2022-10-03T11:44:56;11.90;99.90
11142;DHT22;5625;50.122;19.864;2022-10-03T11:47:49;11.90;99.90
11142;DHT22;5625;50.122;19.864;2022-10-03T11:50:33;11.90;99.90
11142;DHT22;5625;50.122;19.864;2022-10-03T11:53:37;11.90;99.90
11142;DHT22;5625;50.122;19.864;2022-10-03T11:56:34;12.00;99.90
11142;DHT22;5625;50.122;19.864;2022-10-03T12:02:14;12.00;99.90
11142;DHT22;5625;50.122;19.864;2022-10-03T12:04:55;12.10;99.90
11142;DHT22;5625;50.122;19.864;2022-10-03T12:07:39;12.10;99.90
11142;DHT22;5625;50.122;19.864;2022-10-03T12:10:35;12.10;99.90
11142;DHT22;5625;50.122;19.864;2022-10-03T12:13:09;12.10;99.90
11142;DHT22;5625;50.122;19.864;2022-10-03T12:15:42;12.10;99.90
11142;DHT22;5625;50.122;19.864;2022-10-03T12:18:17;12.10;99.90
11142;DHT22;5625;50.122;19.864;2022-10-03T12:21:14;12.10;99.90
11142;DHT22;5625;50.122;19.864;2022-10-03T12:24:03;12.20;99.90
11142;DHT22;5625;50.122;19.864;2022-10-03T12:26:42;12.10;99.90
11142;DHT22;5625;50.122;19.864;2022-10-03T12:29:16;12.20;99.90
11142;DHT22;5625;50.122;19.864;2022-10-03T12:32:04;12.30;99.90
11142;DHT22;5625;50.122;19.864;2022-10-03T12:34:39;12.30;99.90
11142;DHT22;5625;50.122;19.864;2022-10-03T12:37:29;12.30;99.90
11142;DHT22;5625;50.122;19.864;2022-10-03T12:40:07;12.40;99.90
11142;DHT22;5625;50.122;19.864;2022-10-03T12:42:46;12.40;99.90
11142;DHT22;5625;50.122;19.864;2022-10-03T12:45:25;12.50;99.90
11142;DHT22;5625;50.122;19.864;2022-10-03T12:48:09;12.60;99.90
11142;DHT22;5625;50.122;19.864;2022-10-03T12:50:45;12.50;99.90
11142;DHT22;5625;50.122;19.864;2022-10-03T12:53:29;12.60;99.90
11142;DHT22;5625;50.122;19.864;2022-10-03T12:56:03;12.60;99.90
11142;DHT22;5625;50.122;19.864;2022-10-03T12:58:42;12.60;99.90
11142;DHT22;5625;50.122;19.864;2022-10-03T13:01:20;12.50;99.90
11142;DHT22;5625;50.122;19.864;2022-10-03T13:03:53;12.50;99.90
11142;DHT22;5625;50.122;19.864;2022-10-03T13:06:41;12.50;99.90
11142;DHT22;5625;50.122;19.864;2022-10-03T13:10:01;12.50;99.90
11142;DHT22;5625;50.122;19.864;2022-10-03T13:12:39;12.50;99.90
11142;DHT22;5625;50.122;19.864;2022-10-03T13:15:43;12.60;99.90
11142;DHT22;5625;50.122;19.864;2022-10-03T13:18:42;12.70;99.90
11142;DHT22;5625;50.122;19.864;2022-10-03T13:21:16;12.70;99.90
11142;DHT22;5625;50.122;19.864;2022-10-03T13:24:08;12.80;99.90
11142;DHT22;5625;50.122;19.864;2022-10-03T13:26:51;12.80;99.90
11142;DHT22;5625;50.122;19.864;2022-10-03T13:29:24;12.90;99.90
11142;DHT22;5625;50.122;19.864;2022-10-03T13:32:08;13.00;99.90
11142;DHT22;5625;50.122;19.864;2022-10-03T13:34:48;13.00;99.90
11142;DHT22;5625;50.122;19.864;2022-10-03T13:37:27;13.00;99.90
11142;DHT22;5625;50.122;19.864;2022-10-03T13:40:01;13.00;99.90
11142;DHT22;5625;50.122;19.864;2022-10-03T13:42:36;13.00;99.90
11142;DHT22;5625;50.122;19.864;2022-10-03T13:45:12;13.00;99.90
11142;DHT22;5625;50.122;19.864;2022-10-03T13:47:47;13.00;99.90
11142;DHT22;5625;50.122;19.864;2022-10-03T13:50:22;13.00;99.90
11142;DHT22;5625;50.122;19.864;2022-10-03T13:52:56;13.00;99.90
11142;DHT22;5625;50.122;19.864;2022-10-03T13:55:34;13.00;99.90
11142;DHT22;5625;50.122;19.864;2022-10-03T13:58:23;13.00;99.90
11142;DHT22;5625;50.122;19.864;2022-10-03T14:01:16;13.00;99.90
11142;DHT22;5625;50.122;19.864;2022-10-03T14:04:02;13.00;99.90
11142;DHT22;5625;50.122;19.864;2022-10-03T14:06:37;12.90;99.90
11142;DHT22;5625;50.122;19.864;2022-10-03T14:09:25;13.00;99.90
11142;DHT22;5625;50.122;19.864;2022-10-03T14:12:07;13.00;99.90
11142;DHT22;5625;50.122;19.864;2022-10-03T14:15:15;13.00;99.90
11142;DHT22;5625;50.122;19.864;2022-10-03T14:17:50;13.00;99.90
11142;DHT22;5625;50.122;19.864;2022-10-03T14:20:27;13.00;99.90
11142;DHT22;5625;50.122;19.864;2022-10-03T14:23:17;13.10;99.90
11142;DHT22;5625;50.122;19.864;2022-10-03T14:25:54;13.20;99.90
11142;DHT22;5625;50.122;19.864;2022-10-03T14:28:28;13.20;99.90
11142;DHT22;5625;50.122;19.864;2022-10-03T14:31:07;13.30;99.90
11142;DHT22;5625;50.122;19.864;2022-10-03T14:33:43;13.40;99.90
11142;DHT22;5625;50.122;19.864;2022-10-03T14:36:24;13.40;99.90
11142;DHT22;5625;50.122;19.864;2022-10-03T14:39:14;13.50;99.90
11142;DHT22;5625;50.122;19.864;2022-10-03T14:44:54;13.50;99.90
11142;DHT22;5625;50.122;19.864;2022-10-03T14:47:33;13.50;99.80
11142;DHT22;5625;50.122;19.864;2022-10-03T14:50:04;13.40;99.20
11142;DHT22;5625;50.122;19.864;2022-10-03T14:52:38;13.40;99.80
11142;DHT22;5625;50.122;19.864;2022-10-03T14:55:13;13.40;99.90
11142;DHT22;5625;50.122;19.864;2022-10-03T14:57:47;13.40;98.30
11142;DHT22;5625;50.122;19.864;2022-10-03T15:00:39;13.30;97.60
11142;DHT22;5625;50.122;19.864;2022-10-03T15:03:23;13.20;97.20
11142;DHT22;5625;50.122;19.864;2022-10-03T15:05:59;13.20;96.40
11142;DHT22;5625;50.122;19.864;2022-10-03T15:08:31;13.20;95.80
11142;DHT22;5625;50.122;19.864;2022-10-03T15:11:04;13.20;95.70
11142;DHT22;5625;50.122;19.864;2022-10-03T15:13:36;13.20;96.50
11142;DHT22;5625;50.122;19.864;2022-10-03T15:16:07;13.20;96.10
11142;DHT22;5625;50.122;19.864;2022-10-03T15:18:39;13.20;95.60
11142;DHT22;5625;50.122;19.864;2022-10-03T15:21:19;13.20;95.00
11142;DHT22;5625;50.122;19.864;2022-10-03T15:23:53;13.20;95.60
11142;DHT22;5625;50.122;19.864;2022-10-03T15:26:23;13.20;95.20
11142;DHT22;5625;50.122;19.864;2022-10-03T15:28:56;13.20;96.00
11142;DHT22;5625;50.122;19.864;2022-10-03T15:31:32;13.10;95.70
11142;DHT22;5625;50.122;19.864;2022-10-03T15:34:04;13.10;96.80
11142;DHT22;5625;50.122;19.864;2022-10-03T15:36:37;13.10;96.60
11142;DHT22;5625;50.122;19.864;2022-10-03T15:39:17;13.10;96.70
11142;DHT22;5625;50.122;19.864;2022-10-03T15:41:50;13.00;97.60
11142;DHT22;5625;50.122;19.864;2022-10-03T15:44:23;13.00;97.90
11142;DHT22;5625;50.122;19.864;2022-10-03T15:47:00;13.00;98.90
11142;DHT22;5625;50.122;19.864;2022-10-03T15:49:35;12.90;99.30
11142;DHT22;5625;50.122;19.864;2022-10-03T15:52:14;12.90;99.50
11142;DHT22;5625;50.122;19.864;2022-10-03T15:54:45;12.90;99.90
11142;DHT22;5625;50.122;19.864;2022-10-03T15:57:42;12.80;99.90
11142;DHT22;5625;50.122;19.864;2022-10-03T16:00:20;12.80;99.90
11142;DHT22;5625;50.122;19.864;2022-10-03T16:02:55;12.80;99.90
11142;DHT22;5625;50.122;19.864;2022-10-03T16:05:27;12.80;99.90
11142;DHT22;5625;50.122;19.864;2022-10-03T16:07:59;12.70;99.90
11142;DHT22;5625;50.122;19.864;2022-10-03T16:10:35;12.70;99.90
11142;DHT22;5625;50.122;19.864;2022-10-03T16:13:16;12.70;99.90
11142;DHT22;5625;50.122;19.864;2022-10-03T16:16:08;12.60;99.90
11142;DHT22;5625;50.122;19.864;2022-10-03T16:18:45;12.60;99.90
11142;DHT22;5625;50.122;19.864;2022-10-03T16:21:37;12.60;99.90
11142;DHT22;5625;50.122;19.864;2022-10-03T16:24:20;12.50;99.90
11142;DHT22;5625;50.122;19.864;2022-10-03T16:26:53;12.50;99.90
11142;DHT22;5625;50.122;19.864;2022-10-03T16:29:25;12.50;99.90
11142;DHT22;5625;50.122;19.864;2022-10-03T16:32:02;12.50;99.90
11142;DHT22;5625;50.122;19.864;2022-10-03T16:34:33;12.50;99.90
11142;DHT22;5625;50.122;19.864;2022-10-03T16:37:15;12.50;99.90
11142;DHT22;5625;50.122;19.864;2022-10-03T16:39:53;12.40;99.90
11142;DHT22;5625;50.122;19.864;2022-10-03T16:42:24;12.40;99.90
11142;DHT22;5625;50.122;19.864;2022-10-03T16:44:56;12.40;99.90
11142;DHT22;5625;50.122;19.864;2022-10-03T16:47:33;12.30;99.90
11142;DHT22;5625;50.122;19.864;2022-10-03T16:50:03;12.30;99.90
11142;DHT22;5625;50.122;19.864;2022-10-03T16:52:55;12.30;99.90
11142;DHT22;5625;50.122;19.864;2022-10-03T16:55:27;12.30;99.90
11142;DHT22;5625;50.122;19.864;2022-10-03T16:57:59;12.20;99.90
11142;DHT22;5625;50.122;19.864;2022-10-03T17:00:37;12.20;99.90
11142;DHT22;5625;50.122;19.864;2022-10-03T17:03:16;12.20;99.90
11142;DHT22;5625;50.122;19.864;2022-10-03T17:05:47;12.10;99.90
11142;DHT22;5625;50.122;19.864;2022-10-03T17:08:18;12.10;99.90
11142;DHT22;5625;50.122;19.864;2022-10-03T17:11:11;12.00;99.90
11142;DHT22;5625;50.122;19.864;2022-10-03T17:13:45;12.00;99.90
11142;DHT22;5625;50.122;19.864;2022-10-03T17:16:16;12.00;99.90
11142;DHT22;5625;50.122;19.864;2022-10-03T17:19:01;12.00;99.90
11142;DHT22;5625;50.122;19.864;2022-10-03T17:21:37;11.90;99.90
11142;DHT22;5625;50.122;19.864;2022-10-03T17:24:11;11.90;99.90
11142;DHT22;5625;50.122;19.864;2022-10-03T17:26:42;11.90;99.90
11142;DHT22;5625;50.122;19.864;2022-10-03T17:29:14;11.90;99.90
11142;DHT22;5625;50.122;19.864;2022-10-03T17:31:48;11.80;99.90
11142;DHT22;5625;50.122;19.864;2022-10-03T17:34:21;11.90;99.90
11142;DHT22;5625;50.122;19.864;2022-10-03T17:37:13;11.80;99.90
11142;DHT22;5625;50.122;19.864;2022-10-03T17:39:53;11.80;99.90
11142;DHT22;5625;50.122;19.864;2022-10-03T17:42:36;11.80;99.90
11142;DHT22;5625;50.122;19.864;2022-10-03T17:45:18;11.80;99.90
11142;DHT22;5625;50.122;19.864;2022-10-03T17:47:55;11.70;99.90
11142;DHT22;5625;50.122;19.864;2022-10-03T17:50:28;11.70;99.90
11142;DHT22;5625;50.122;19.864;2022-10-03T17:52:58;11.70;99.90
11142;DHT22;5625;50.122;19.864;2022-10-03T17:55:32;11.60;99.90
11142;DHT22;5625;50.122;19.864;2022-10-03T17:58:05;11.60;99.90
11142;DHT22;5625;50.122;19.864;2022-10-03T18:00:55;11.60;99.90
11142;DHT22;5625;50.122;19.864;2022-10-03T18:03:32;11.60;99.90
11142;DHT22;5625;50.122;19.864;2022-10-03T18:09:29;11.60;99.90
11142;DHT22;5625;50.122;19.864;2022-10-03T18:12:09;11.60;99.90
11142;DHT22;5625;50.122;19.864;2022-10-03T18:15:14;11.60;99.90
11142;DHT22;5625;50.122;19.864;2022-10-03T18:17:57;11.60;99.90
11142;DHT22;5625;50.122;19.864;2022-10-03T18:20:40;11.60;99.90
11142;DHT22;5625;50.122;19.864;2022-10-03T18:23:15;11.50;99.90
11142;DHT22;5625;50.122;19.864;2022-10-03T18:26:11;11.50;99.90
11142;DHT22;5625;50.122;19.864;2022-10-03T18:28:54;11.50;99.90
11142;DHT22;5625;50.122;19.864;2022-10-03T18:31:29;11.50;99.90
11142;DHT22;5625;50.122;19.864;2022-10-03T18:34:02;11.50;99.90
11142;DHT22;5625;50.122;19.864;2022-10-03T18:36:42;11.50;99.90
11142;DHT22;5625;50.122;19.864;2022-10-03T18:39:15;11.50;99.90
11142;DHT22;5625;50.122;19.864;2022-10-03T18:41:47;11.50;99.90
11142;DHT22;5625;50.122;19.864;2022-10-03T18:44:18;11.50;99.90
11142;DHT22;5625;50.122;19.864;2022-10-03T18:46:51;11.50;99.90
11142;DHT22;5625;50.122;19.864;2022-10-03T18:49:24;11.50;99.90
11142;DHT22;5625;50.122;19.864;2022-10-03T18:52:06;11.50;99.90
11142;DHT22;5625;50.122;19.864;2022-10-03T18:54:47;11.60;99.90
11142;DHT22;5625;50.122;19.864;2022-10-03T18:57:21;11.60;99.90
11142;DHT22;5625;50.122;19.864;2022-10-03T18:59:55;11.50;99.90
11142;DHT22;5625;50.122;19.864;2022-10-03T19:02:33;11.50;99.90
11142;DHT22;5625;50.122;19.864;2022-10-03T19:05:10;11.40;99.90
11142;DHT22;5625;50.122;19.864;2022-10-03T19:07:50;11.40;99.90
11142;DHT22;5625;50.122;19.864;2022-10-03T19:10:34;11.30;99.90
11142;DHT22;5625;50.122;19.864;2022-10-03T19:13:14;11.30;99.90
11142;DHT22;5625;50.122;19.864;2022-10-03T19:16:03;11.30;99.90
11142;DHT22;5625;50.122;19.864;2022-10-03T19:18:40;11.30;99.90
11142;DHT22;5625;50.122;19.864;2022-10-03T19:21:13;11.30;99.90
11142;DHT22;5625;50.122;19.864;2022-10-03T19:23:47;11.30;99.90
11142;DHT22;5625;50.122;19.864;2022-10-03T19:26:23;11.30;99.90
11142;DHT22;5625;50.122;19.864;2022-10-03T19:28:56;11.30;99.90
11142;DHT22;5625;50.122;19.864;2022-10-03T19:31:31;11.30;99.90
11142;DHT22;5625;50.122;19.864;2022-10-03T19:34:04;11.30;99.90
11142;DHT22;5625;50.122;19.864;2022-10-03T19:36:35;11.30;99.90
11142;DHT22;5625;50.122;19.864;2022-10-03T19:39:09;11.30;99.90
11142;DHT22;5625;50.122;19.864;2022-10-03T19:41:46;11.30;99.90
11142;DHT22;5625;50.122;19.864;2022-10-03T19:44:20;11.30;99.90
11142;DHT22;5625;50.122;19.864;2022-10-03T19:47:00;11.30;99.90
11142;DHT22;5625;50.122;19.864;2022-10-03T19:49:51;11.30;99.90
11142;DHT22;5625;50.122;19.864;2022-10-03T19:52:27;11.30;99.90
11142;DHT22;5625;50.122;19.864;2022-10-03T19:55:02;11.30;99.90
11142;DHT22;5625;50.122;19.864;2022-10-03T19:57:41;11.30;99.90
11142;DHT22;5625;50.122;19.864;2022-10-03T20:00:21;11.30;99.90